sensor_id;sensor_type;location;lat;lon;timestamp;P1;durP1;ratioP1;P2;durP2;ratioP2
21272;SDS011;36726;52.328;10.552;2022-12-17T00:02:40;46.92;;;21.00;;
21272;SDS011;36726;52.328;10.552;2022-12-17T00:05:25;36.13;;;19.27;;
21272;SDS011;36726;52.328;10.552;2022-12-17T00:08:25;41.20;;;21.00;;
21272;SDS011;36726;52.328;10.552;2022-12-17T00:11:10;41.50;;;21.52;;
21272;SDS011;36726;52.328;10.552;2022-12-17T00:13:55;46.35;;;22.52;;
21272;SDS011;36726;52.328;10.552;2022-12-17T00:16:41;47.53;;;21.50;;
21272;SDS011;36726;52.328;10.552;2022-12-17T00:19:26;43.90;;;22.45;;
21272;SDS011;36726;52.328;10.552;2022-12-17T00:22:11;49.17;;;20.85;;
21272;SDS011;36726;52.328;10.552;2022-12-17T00:24:57;52.05;;;22.35;;
21272;SDS011;36726;52.328;10.552;2022-12-17T00:27:42;47.03;;;22.20;;
21272;SDS011;36726;52.328;10.552;2022-12-17T00:30:27;42.70;;;20.27;;
21272;SDS011;36726;52.328;10.552;2022-12-17T00:33:12;40.38;;;21.58;;
21272;SDS011;36726;52.328;10.552;2022-12-17T00:35:58;45.78;;;22.45;;
21272;SDS011;36726;52.328;10.552;2022-12-17T00:38:43;41.45;;;21.17;;
21272;SDS011;36726;52.328;10.552;2022-12-17T00:41:29;41.00;;;20.08;;
21272;SDS011;36726;52.328;10.552;2022-12-17T00:44:14;43.85;;;22.33;;
21272;SDS011;36726;52.328;10.552;2022-12-17T00:46:59;50.80;;;23.45;;
21272;SDS011;36726;52.328;10.552;2022-12-17T00:49:44;47.03;;;22.50;;
21272;SDS011;36726;52.328;10.552;2022-12-17T00:52:29;49.00;;;22.65;;
21272;SDS011;36726;52.328;10.552;2022-12-17T00:55:14;48.55;;;22.13;;
21272;SDS011;36726;52.328;10.552;2022-12-17T00:57:59;42.53;;;22.60;;
21272;SDS011;36726;52.328;10.552;2022-12-17T01:00:44;49.78;;;23.40;;
21272;SDS011;36726;52.328;10.552;2022-12-17T01:03:30;47.22;;;21.35;;
21272;SDS011;36726;52.328;10.552;2022-12-17T01:06:16;48.60;;;24.17;;
21272;SDS011;36726;52.328;10.552;2022-12-17T01:09:01;49.38;;;25.15;;
21272;SDS011;36726;52.328;10.552;2022-12-17T01:11:47;64.75;;;31.70;;
21272;SDS011;36726;52.328;10.552;2022-12-17T01:14:33;48.97;;;24.17;;
21272;SDS011;36726;52.328;10.552;2022-12-17T01:17:20;46.42;;;23.77;;
21272;SDS011;36726;52.328;10.552;2022-12-17T01:20:05;44.33;;;23.02;;
21272;SDS011;36726;52.328;10.552;2022-12-17T01:22:51;45.47;;;22.45;;
21272;SDS011;36726;52.328;10.552;2022-12-17T01:25:37;97.68;;;43.85;;
21272;SDS011;36726;52.328;10.552;2022-12-17T01:28:22;52.10;;;25.70;;
21272;SDS011;36726;52.328;10.552;2022-12-17T01:31:09;59.88;;;29.65;;
21272;SDS011;36726;52.328;10.552;2022-12-17T01:34:00;57.20;;;26.67;;
21272;SDS011;36726;52.328;10.552;2022-12-17T01:36:46;56.78;;;26.50;;
21272;SDS011;36726;52.328;10.552;2022-12-17T01:39:31;49.25;;;22.75;;
21272;SDS011;36726;52.328;10.552;2022-12-17T01:42:16;37.47;;;20.75;;
21272;SDS011;36726;52.328;10.552;2022-12-17T01:45:12;40.80;;;20.00;;
21272;SDS011;36726;52.328;10.552;2022-12-17T01:48:00;38.25;;;20.63;;
21272;SDS011;36726;52.328;10.552;2022-12-17T01:50:49;43.42;;;20.92;;
21272;SDS011;36726;52.328;10.552;2022-12-17T01:53:40;44.45;;;21.58;;
21272;SDS011;36726;52.328;10.552;2022-12-17T01:56:30;37.67;;;19.67;;
21272;SDS011;36726;52.328;10.552;2022-12-17T01:59:17;37.05;;;20.58;;
21272;SDS011;36726;52.328;10.552;2022-12-17T02:02:38;37.38;;;20.25;;
21272;SDS011;36726;52.328;10.552;2022-12-17T02:05:27;46.90;;;20.98;;
21272;SDS011;36726;52.328;10.552;2022-12-17T02:11:43;45.20;;;20.88;;
21272;SDS011;36726;52.328;10.552;2022-12-17T02:17:43;46.45;;;21.98;;
21272;SDS011;36726;52.328;10.552;2022-12-17T02:20:36;38.63;;;21.27;;
21272;SDS011;36726;52.328;10.552;2022-12-17T02:26:47;42.92;;;20.80;;
21272;SDS011;36726;52.328;10.552;2022-12-17T02:29:40;51.83;;;24.52;;
21272;SDS011;36726;52.328;10.552;2022-12-17T02:32:32;47.85;;;23.00;;
21272;SDS011;36726;52.328;10.552;2022-12-17T02:35:24;43.40;;;20.33;;
21272;SDS011;36726;52.328;10.552;2022-12-17T02:38:25;42.95;;;21.13;;
21272;SDS011;36726;52.328;10.552;2022-12-17T02:41:23;40.40;;;20.52;;
21272;SDS011;36726;52.328;10.552;2022-12-17T02:44:16;37.65;;;18.90;;
21272;SDS011;36726;52.328;10.552;2022-12-17T02:47:06;37.63;;;19.77;;
21272;SDS011;36726;52.328;10.552;2022-12-17T02:49:54;42.05;;;20.65;;
21272;SDS011;36726;52.328;10.552;2022-12-17T02:52:41;39.65;;;20.00;;
21272;SDS011;36726;52.328;10.552;2022-12-17T02:55:31;40.13;;;20.30;;
21272;SDS011;36726;52.328;10.552;2022-12-17T02:58:17;41.58;;;20.38;;
21272;SDS011;36726;52.328;10.552;2022-12-17T03:01:03;46.92;;;20.73;;
21272;SDS011;36726;52.328;10.552;2022-12-17T03:03:49;43.95;;;20.45;;
21272;SDS011;36726;52.328;10.552;2022-12-17T03:06:35;40.22;;;20.02;;
21272;SDS011;36726;52.328;10.552;2022-12-17T03:09:20;41.88;;;20.02;;
21272;SDS011;36726;52.328;10.552;2022-12-17T03:12:06;41.10;;;19.67;;
21272;SDS011;36726;52.328;10.552;2022-12-17T03:14:52;38.58;;;20.58;;
21272;SDS011;36726;52.328;10.552;2022-12-17T03:17:37;37.95;;;19.27;;
21272;SDS011;36726;52.328;10.552;2022-12-17T03:20:22;40.72;;;19.95;;
21272;SDS011;36726;52.328;10.552;2022-12-17T03:23:08;34.33;;;20.02;;
21272;SDS011;36726;52.328;10.552;2022-12-17T03:25:58;43.10;;;20.42;;
21272;SDS011;36726;52.328;10.552;2022-12-17T03:28:45;48.50;;;20.65;;
21272;SDS011;36726;52.328;10.552;2022-12-17T03:31:31;45.25;;;20.88;;
21272;SDS011;36726;52.328;10.552;2022-12-17T03:34:17;42.55;;;21.02;;
21272;SDS011;36726;52.328;10.552;2022-12-17T03:37:02;42.38;;;20.27;;
21272;SDS011;36726;52.328;10.552;2022-12-17T03:39:47;40.40;;;20.33;;
21272;SDS011;36726;52.328;10.552;2022-12-17T03:42:32;44.65;;;21.08;;
21272;SDS011;36726;52.328;10.552;2022-12-17T03:45:17;42.13;;;19.83;;
21272;SDS011;36726;52.328;10.552;2022-12-17T03:48:13;39.90;;;19.52;;
21272;SDS011;36726;52.328;10.552;2022-12-17T03:50:59;44.22;;;21.58;;
21272;SDS011;36726;52.328;10.552;2022-12-17T03:53:45;48.20;;;22.48;;
21272;SDS011;36726;52.328;10.552;2022-12-17T03:56:30;40.88;;;21.70;;
21272;SDS011;36726;52.328;10.552;2022-12-17T03:59:16;40.97;;;21.17;;
21272;SDS011;36726;52.328;10.552;2022-12-17T04:02:01;44.50;;;20.65;;
21272;SDS011;36726;52.328;10.552;2022-12-17T04:04:46;42.03;;;20.83;;
21272;SDS011;36726;52.328;10.552;2022-12-17T04:07:32;41.38;;;20.23;;
21272;SDS011;36726;52.328;10.552;2022-12-17T04:10:17;46.22;;;20.42;;
21272;SDS011;36726;52.328;10.552;2022-12-17T04:13:02;40.53;;;20.38;;
21272;SDS011;36726;52.328;10.552;2022-12-17T04:15:48;42.85;;;20.65;;
21272;SDS011;36726;52.328;10.552;2022-12-17T04:18:36;36.40;;;19.83;;
21272;SDS011;36726;52.328;10.552;2022-12-17T04:21:21;41.85;;;20.67;;
21272;SDS011;36726;52.328;10.552;2022-12-17T04:24:06;44.78;;;20.35;;
21272;SDS011;36726;52.328;10.552;2022-12-17T04:26:51;43.20;;;22.52;;
21272;SDS011;36726;52.328;10.552;2022-12-17T04:29:36;40.13;;;21.08;;
21272;SDS011;36726;52.328;10.552;2022-12-17T04:32:21;45.45;;;20.40;;
21272;SDS011;36726;52.328;10.552;2022-12-17T04:35:07;37.92;;;19.85;;
21272;SDS011;36726;52.328;10.552;2022-12-17T04:37:52;39.53;;;19.27;;
21272;SDS011;36726;52.328;10.552;2022-12-17T04:40:37;38.45;;;20.33;;
21272;SDS011;36726;52.328;10.552;2022-12-17T04:43:22;40.90;;;19.77;;
21272;SDS011;36726;52.328;10.552;2022-12-17T04:46:07;39.22;;;20.05;;
21272;SDS011;36726;52.328;10.552;2022-12-17T04:48:52;39.00;;;20.05;;
21272;SDS011;36726;52.328;10.552;2022-12-17T04:51:38;45.40;;;20.85;;
21272;SDS011;36726;52.328;10.552;2022-12-17T04:54:23;38.75;;;19.88;;
21272;SDS011;36726;52.328;10.552;2022-12-17T04:57:08;41.50;;;19.77;;
21272;SDS011;36726;52.328;10.552;2022-12-17T04:59:53;37.60;;;19.20;;
21272;SDS011;36726;52.328;10.552;2022-12-17T05:02:38;47.22;;;20.25;;
21272;SDS011;36726;52.328;10.552;2022-12-17T05:05:24;40.45;;;20.35;;
21272;SDS011;36726;52.328;10.552;2022-12-17T05:08:09;36.90;;;20.20;;
21272;SDS011;36726;52.328;10.552;2022-12-17T05:10:54;42.90;;;21.20;;
21272;SDS011;36726;52.328;10.552;2022-12-17T05:13:39;46.90;;;21.20;;
21272;SDS011;36726;52.328;10.552;2022-12-17T05:16:24;40.88;;;20.17;;
21272;SDS011;36726;52.328;10.552;2022-12-17T05:19:10;45.00;;;21.80;;
21272;SDS011;36726;52.328;10.552;2022-12-17T05:21:55;47.38;;;22.60;;
21272;SDS011;36726;52.328;10.552;2022-12-17T05:24:40;43.28;;;21.23;;
21272;SDS011;36726;52.328;10.552;2022-12-17T05:27:25;41.42;;;21.05;;
21272;SDS011;36726;52.328;10.552;2022-12-17T05:30:10;38.80;;;20.83;;
21272;SDS011;36726;52.328;10.552;2022-12-17T05:32:59;41.13;;;21.90;;
21272;SDS011;36726;52.328;10.552;2022-12-17T05:35:45;39.80;;;20.45;;
21272;SDS011;36726;52.328;10.552;2022-12-17T05:38:31;39.50;;;20.85;;
21272;SDS011;36726;52.328;10.552;2022-12-17T05:41:16;39.42;;;21.02;;
21272;SDS011;36726;52.328;10.552;2022-12-17T05:44:01;38.28;;;19.80;;
21272;SDS011;36726;52.328;10.552;2022-12-17T05:46:47;41.65;;;21.20;;
21272;SDS011;36726;52.328;10.552;2022-12-17T05:49:32;41.25;;;20.42;;
21272;SDS011;36726;52.328;10.552;2022-12-17T05:52:21;36.53;;;19.13;;
21272;SDS011;36726;52.328;10.552;2022-12-17T05:55:07;38.33;;;19.63;;
21272;SDS011;36726;52.328;10.552;2022-12-17T05:58:00;42.85;;;21.13;;
21272;SDS011;36726;52.328;10.552;2022-12-17T06:00:53;41.75;;;19.77;;
21272;SDS011;36726;52.328;10.552;2022-12-17T06:03:42;38.50;;;20.65;;
21272;SDS011;36726;52.328;10.552;2022-12-17T06:06:27;36.95;;;20.35;;
21272;SDS011;36726;52.328;10.552;2022-12-17T06:09:13;41.85;;;20.85;;
21272;SDS011;36726;52.328;10.552;2022-12-17T06:11:58;47.00;;;20.88;;
21272;SDS011;36726;52.328;10.552;2022-12-17T06:14:43;40.65;;;19.90;;
21272;SDS011;36726;52.328;10.552;2022-12-17T06:17:28;40.38;;;20.92;;
21272;SDS011;36726;52.328;10.552;2022-12-17T06:20:13;41.22;;;19.92;;
21272;SDS011;36726;52.328;10.552;2022-12-17T06:23:02;43.25;;;20.88;;
21272;SDS011;36726;52.328;10.552;2022-12-17T06:25:51;39.08;;;21.25;;
21272;SDS011;36726;52.328;10.552;2022-12-17T06:28:37;36.80;;;19.60;;
21272;SDS011;36726;52.328;10.552;2022-12-17T06:31:21;42.17;;;21.23;;
21272;SDS011;36726;52.328;10.552;2022-12-17T06:34:07;44.70;;;20.60;;
21272;SDS011;36726;52.328;10.552;2022-12-17T06:36:52;41.05;;;20.60;;
21272;SDS011;36726;52.328;10.552;2022-12-17T06:39:38;39.75;;;20.45;;
21272;SDS011;36726;52.328;10.552;2022-12-17T06:42:23;38.28;;;20.35;;
21272;SDS011;36726;52.328;10.552;2022-12-17T06:45:08;37.67;;;20.02;;
21272;SDS011;36726;52.328;10.552;2022-12-17T06:48:00;41.50;;;20.58;;
21272;SDS011;36726;52.328;10.552;2022-12-17T06:50:47;41.22;;;21.13;;
21272;SDS011;36726;52.328;10.552;2022-12-17T06:53:32;44.65;;;21.58;;
21272;SDS011;36726;52.328;10.552;2022-12-17T06:56:17;38.53;;;20.30;;
21272;SDS011;36726;52.328;10.552;2022-12-17T06:59:02;43.30;;;21.27;;
21272;SDS011;36726;52.328;10.552;2022-12-17T07:01:47;44.25;;;20.88;;
21272;SDS011;36726;52.328;10.552;2022-12-17T07:04:33;42.78;;;19.65;;
21272;SDS011;36726;52.328;10.552;2022-12-17T07:07:18;38.83;;;19.50;;
21272;SDS011;36726;52.328;10.552;2022-12-17T07:10:03;44.90;;;20.83;;
21272;SDS011;36726;52.328;10.552;2022-12-17T07:12:49;40.42;;;20.20;;
21272;SDS011;36726;52.328;10.552;2022-12-17T07:15:34;36.83;;;20.73;;
21272;SDS011;36726;52.328;10.552;2022-12-17T07:18:19;41.40;;;20.63;;
21272;SDS011;36726;52.328;10.552;2022-12-17T07:21:04;39.88;;;20.38;;
21272;SDS011;36726;52.328;10.552;2022-12-17T07:23:50;43.83;;;21.42;;
21272;SDS011;36726;52.328;10.552;2022-12-17T07:26:35;42.65;;;21.40;;
21272;SDS011;36726;52.328;10.552;2022-12-17T07:29:20;39.22;;;20.85;;
21272;SDS011;36726;52.328;10.552;2022-12-17T07:32:05;37.35;;;20.45;;
21272;SDS011;36726;52.328;10.552;2022-12-17T07:34:50;38.42;;;20.00;;
21272;SDS011;36726;52.328;10.552;2022-12-17T07:37:35;42.13;;;21.08;;
21272;SDS011;36726;52.328;10.552;2022-12-17T07:40:20;38.58;;;18.95;;
21272;SDS011;36726;52.328;10.552;2022-12-17T07:43:12;39.97;;;19.17;;
21272;SDS011;36726;52.328;10.552;2022-12-17T07:45:58;35.47;;;18.88;;
21272;SDS011;36726;52.328;10.552;2022-12-17T07:48:43;41.83;;;20.27;;
21272;SDS011;36726;52.328;10.552;2022-12-17T07:51:28;40.35;;;19.60;;
21272;SDS011;36726;52.328;10.552;2022-12-17T07:54:14;40.17;;;19.75;;
21272;SDS011;36726;52.328;10.552;2022-12-17T07:56:59;36.22;;;19.05;;
21272;SDS011;36726;52.328;10.552;2022-12-17T07:59:44;42.42;;;20.90;;
21272;SDS011;36726;52.328;10.552;2022-12-17T08:02:30;39.00;;;19.60;;
21272;SDS011;36726;52.328;10.552;2022-12-17T08:05:15;40.20;;;19.77;;
21272;SDS011;36726;52.328;10.552;2022-12-17T08:08:10;41.22;;;21.63;;
21272;SDS011;36726;52.328;10.552;2022-12-17T08:10:56;35.88;;;19.63;;
21272;SDS011;36726;52.328;10.552;2022-12-17T08:13:42;35.25;;;19.65;;
21272;SDS011;36726;52.328;10.552;2022-12-17T08:16:28;39.72;;;20.02;;
21272;SDS011;36726;52.328;10.552;2022-12-17T08:19:30;41.80;;;18.95;;
21272;SDS011;36726;52.328;10.552;2022-12-17T08:22:15;39.97;;;18.63;;
21272;SDS011;36726;52.328;10.552;2022-12-17T08:25:00;33.85;;;17.65;;
21272;SDS011;36726;52.328;10.552;2022-12-17T08:27:45;39.85;;;18.95;;
21272;SDS011;36726;52.328;10.552;2022-12-17T08:31:07;42.85;;;18.92;;
21272;SDS011;36726;52.328;10.552;2022-12-17T08:33:52;33.67;;;17.33;;
21272;SDS011;36726;52.328;10.552;2022-12-17T08:36:37;31.98;;;17.75;;
21272;SDS011;36726;52.328;10.552;2022-12-17T08:39:23;35.72;;;19.13;;
21272;SDS011;36726;52.328;10.552;2022-12-17T08:42:08;36.22;;;17.90;;
21272;SDS011;36726;52.328;10.552;2022-12-17T08:44:53;37.72;;;18.40;;
21272;SDS011;36726;52.328;10.552;2022-12-17T08:47:38;37.67;;;18.60;;
21272;SDS011;36726;52.328;10.552;2022-12-17T08:50:29;38.03;;;19.58;;
21272;SDS011;36726;52.328;10.552;2022-12-17T08:53:14;35.78;;;17.67;;
21272;SDS011;36726;52.328;10.552;2022-12-17T08:56:00;34.95;;;18.30;;
21272;SDS011;36726;52.328;10.552;2022-12-17T08:58:45;40.78;;;18.92;;
21272;SDS011;36726;52.328;10.552;2022-12-17T09:01:31;38.25;;;21.25;;
21272;SDS011;36726;52.328;10.552;2022-12-17T09:04:16;39.33;;;21.55;;
21272;SDS011;36726;52.328;10.552;2022-12-17T09:07:01;40.70;;;20.83;;
21272;SDS011;36726;52.328;10.552;2022-12-17T09:09:46;40.33;;;18.83;;
21272;SDS011;36726;52.328;10.552;2022-12-17T09:12:31;62.75;;;31.13;;
21272;SDS011;36726;52.328;10.552;2022-12-17T09:15:16;36.95;;;18.95;;
21272;SDS011;36726;52.328;10.552;2022-12-17T09:18:01;38.47;;;19.00;;
21272;SDS011;36726;52.328;10.552;2022-12-17T09:20:53;36.78;;;17.23;;
21272;SDS011;36726;52.328;10.552;2022-12-17T09:23:39;32.65;;;17.10;;
21272;SDS011;36726;52.328;10.552;2022-12-17T09:26:25;33.50;;;17.77;;
21272;SDS011;36726;52.328;10.552;2022-12-17T09:29:10;29.33;;;16.55;;
21272;SDS011;36726;52.328;10.552;2022-12-17T09:31:55;36.88;;;20.70;;
21272;SDS011;36726;52.328;10.552;2022-12-17T09:34:40;31.25;;;16.95;;
21272;SDS011;36726;52.328;10.552;2022-12-17T09:37:25;30.83;;;16.23;;
21272;SDS011;36726;52.328;10.552;2022-12-17T09:40:15;31.35;;;16.27;;
21272;SDS011;36726;52.328;10.552;2022-12-17T09:43:04;29.23;;;15.15;;
21272;SDS011;36726;52.328;10.552;2022-12-17T09:49:00;35.40;;;15.77;;
21272;SDS011;36726;52.328;10.552;2022-12-17T09:51:47;30.20;;;14.65;;
21272;SDS011;36726;52.328;10.552;2022-12-17T09:54:34;29.25;;;15.02;;
21272;SDS011;36726;52.328;10.552;2022-12-17T09:57:28;27.15;;;13.40;;
21272;SDS011;36726;52.328;10.552;2022-12-17T10:00:18;26.95;;;14.32;;
21272;SDS011;36726;52.328;10.552;2022-12-17T10:03:12;33.05;;;15.00;;
21272;SDS011;36726;52.328;10.552;2022-12-17T10:06:01;25.60;;;14.13;;
21272;SDS011;36726;52.328;10.552;2022-12-17T10:08:52;27.35;;;13.60;;
21272;SDS011;36726;52.328;10.552;2022-12-17T10:11:42;29.65;;;14.45;;
21272;SDS011;36726;52.328;10.552;2022-12-17T10:14:27;25.77;;;13.07;;
21272;SDS011;36726;52.328;10.552;2022-12-17T10:17:17;27.95;;;12.80;;
21272;SDS011;36726;52.328;10.552;2022-12-17T10:20:17;24.13;;;13.02;;
21272;SDS011;36726;52.328;10.552;2022-12-17T10:23:08;27.60;;;13.40;;
21272;SDS011;36726;52.328;10.552;2022-12-17T10:25:54;31.13;;;15.40;;
21272;SDS011;36726;52.328;10.552;2022-12-17T10:28:40;28.85;;;15.15;;
21272;SDS011;36726;52.328;10.552;2022-12-17T10:31:27;28.00;;;14.10;;
21272;SDS011;36726;52.328;10.552;2022-12-17T10:34:19;25.13;;;12.35;;
21272;SDS011;36726;52.328;10.552;2022-12-17T10:37:05;18.83;;;10.88;;
21272;SDS011;36726;52.328;10.552;2022-12-17T10:40:02;20.45;;;9.57;;
21272;SDS011;36726;52.328;10.552;2022-12-17T10:42:58;19.60;;;9.27;;
21272;SDS011;36726;52.328;10.552;2022-12-17T10:45:51;19.27;;;9.68;;
21272;SDS011;36726;52.328;10.552;2022-12-17T10:48:38;19.77;;;9.13;;
21272;SDS011;36726;52.328;10.552;2022-12-17T10:54:35;21.25;;;9.48;;
21272;SDS011;36726;52.328;10.552;2022-12-17T10:57:35;17.20;;;8.85;;
21272;SDS011;36726;52.328;10.552;2022-12-17T11:00:24;18.42;;;9.27;;
21272;SDS011;36726;52.328;10.552;2022-12-17T11:06:10;18.45;;;9.68;;
21272;SDS011;36726;52.328;10.552;2022-12-17T11:09:10;18.58;;;8.48;;
21272;SDS011;36726;52.328;10.552;2022-12-17T11:12:03;16.63;;;9.02;;
21272;SDS011;36726;52.328;10.552;2022-12-17T11:14:56;20.70;;;9.80;;
21272;SDS011;36726;52.328;10.552;2022-12-17T11:17:45;17.42;;;9.45;;
21272;SDS011;36726;52.328;10.552;2022-12-17T11:21:10;15.95;;;9.15;;
21272;SDS011;36726;52.328;10.552;2022-12-17T11:23:52;15.88;;;8.73;;
21272;SDS011;36726;52.328;10.552;2022-12-17T11:26:48;15.63;;;8.35;;
21272;SDS011;36726;52.328;10.552;2022-12-17T11:29:36;18.27;;;8.57;;
21272;SDS011;36726;52.328;10.552;2022-12-17T11:35:18;17.55;;;9.52;;
21272;SDS011;36726;52.328;10.552;2022-12-17T11:41:17;18.35;;;8.23;;
21272;SDS011;36726;52.328;10.552;2022-12-17T11:52:56;17.25;;;8.40;;
21272;SDS011;36726;52.328;10.552;2022-12-17T11:56:01;19.42;;;8.40;;
21272;SDS011;36726;52.328;10.552;2022-12-17T11:58:51;15.02;;;7.80;;
21272;SDS011;36726;52.328;10.552;2022-12-17T12:08:25;17.40;;;8.00;;
21272;SDS011;36726;52.328;10.552;2022-12-17T12:24:05;17.42;;;7.63;;
21272;SDS011;36726;52.328;10.552;2022-12-17T12:27:04;14.40;;;7.50;;
21272;SDS011;36726;52.328;10.552;2022-12-17T12:29:58;17.52;;;7.65;;
21272;SDS011;36726;52.328;10.552;2022-12-17T12:32:57;20.08;;;7.72;;
21272;SDS011;36726;52.328;10.552;2022-12-17T12:35:51;17.42;;;8.55;;
21272;SDS011;36726;52.328;10.552;2022-12-17T12:38:42;13.52;;;7.53;;
21272;SDS011;36726;52.328;10.552;2022-12-17T12:41:33;16.42;;;6.85;;
21272;SDS011;36726;52.328;10.552;2022-12-17T12:44:50;15.70;;;7.60;;
21272;SDS011;36726;52.328;10.552;2022-12-17T12:50:54;17.05;;;8.68;;
21272;SDS011;36726;52.328;10.552;2022-12-17T12:53:56;15.30;;;7.95;;
21272;SDS011;36726;52.328;10.552;2022-12-17T12:56:42;20.95;;;8.02;;
21272;SDS011;36726;52.328;10.552;2022-12-17T12:59:32;13.52;;;7.60;;
21272;SDS011;36726;52.328;10.552;2022-12-17T13:02:26;13.52;;;7.40;;
21272;SDS011;36726;52.328;10.552;2022-12-17T13:05:21;10.63;;;6.35;;
21272;SDS011;36726;52.328;10.552;2022-12-17T13:08:15;13.32;;;6.95;;
21272;SDS011;36726;52.328;10.552;2022-12-17T13:10:45;13.55;;;6.95;;
21272;SDS011;36726;52.328;10.552;2022-12-17T13:15:58;17.75;;;8.32;;
21272;SDS011;36726;52.328;10.552;2022-12-17T13:18:35;16.35;;;7.68;;
21272;SDS011;36726;52.328;10.552;2022-12-17T13:23:42;13.57;;;7.47;;
21272;SDS011;36726;52.328;10.552;2022-12-17T13:26:12;13.40;;;7.47;;
21272;SDS011;36726;52.328;10.552;2022-12-17T13:28:42;14.27;;;7.93;;
21272;SDS011;36726;52.328;10.552;2022-12-17T13:31:19;14.27;;;7.75;;
21272;SDS011;36726;52.328;10.552;2022-12-17T13:36:47;12.77;;;6.88;;
21272;SDS011;36726;52.328;10.552;2022-12-17T13:39:29;15.18;;;8.00;;
21272;SDS011;36726;52.328;10.552;2022-12-17T13:45:13;16.70;;;7.40;;
21272;SDS011;36726;52.328;10.552;2022-12-17T13:47:42;13.32;;;7.50;;
21272;SDS011;36726;52.328;10.552;2022-12-17T13:50:17;15.43;;;7.97;;
21272;SDS011;36726;52.328;10.552;2022-12-17T13:53:08;13.82;;;7.53;;
21272;SDS011;36726;52.328;10.552;2022-12-17T13:55:37;17.88;;;7.60;;
21272;SDS011;36726;52.328;10.552;2022-12-17T13:58:04;12.73;;;7.50;;
21272;SDS011;36726;52.328;10.552;2022-12-17T14:00:31;15.38;;;7.45;;
21272;SDS011;36726;52.328;10.552;2022-12-17T14:03:08;18.35;;;8.27;;
21272;SDS011;36726;52.328;10.552;2022-12-17T14:05:38;19.75;;;9.32;;
21272;SDS011;36726;52.328;10.552;2022-12-17T14:08:11;16.05;;;7.18;;
21272;SDS011;36726;52.328;10.552;2022-12-17T14:10:44;14.27;;;7.60;;
21272;SDS011;36726;52.328;10.552;2022-12-17T14:13:18;16.08;;;8.10;;
21272;SDS011;36726;52.328;10.552;2022-12-17T14:15:46;18.70;;;8.45;;
21272;SDS011;36726;52.328;10.552;2022-12-17T14:18:15;18.00;;;8.77;;
21272;SDS011;36726;52.328;10.552;2022-12-17T14:20:44;18.77;;;8.68;;
21272;SDS011;36726;52.328;10.552;2022-12-17T14:23:14;16.63;;;8.32;;
21272;SDS011;36726;52.328;10.552;2022-12-17T14:25:49;19.02;;;9.27;;
21272;SDS011;36726;52.328;10.552;2022-12-17T14:30:48;17.85;;;8.23;;
21272;SDS011;36726;52.328;10.552;2022-12-17T14:33:36;18.60;;;8.60;;
21272;SDS011;36726;52.328;10.552;2022-12-17T14:36:07;16.88;;;8.90;;
21272;SDS011;36726;52.328;10.552;2022-12-17T14:38:59;17.85;;;9.23;;
21272;SDS011;36726;52.328;10.552;2022-12-17T14:41:27;16.30;;;9.55;;
21272;SDS011;36726;52.328;10.552;2022-12-17T14:44:27;22.30;;;10.45;;
21272;SDS011;36726;52.328;10.552;2022-12-17T14:47:10;24.02;;;10.57;;
21272;SDS011;36726;52.328;10.552;2022-12-17T14:50:00;19.70;;;9.90;;
21272;SDS011;36726;52.328;10.552;2022-12-17T14:52:53;19.83;;;11.45;;
21272;SDS011;36726;52.328;10.552;2022-12-17T14:58:25;23.00;;;12.25;;
21272;SDS011;36726;52.328;10.552;2022-12-17T15:00:58;25.40;;;12.75;;
21272;SDS011;36726;52.328;10.552;2022-12-17T15:03:33;32.83;;;14.05;;
21272;SDS011;36726;52.328;10.552;2022-12-17T15:06:05;25.58;;;13.15;;
21272;SDS011;36726;52.328;10.552;2022-12-17T15:08:35;22.05;;;12.18;;
21272;SDS011;36726;52.328;10.552;2022-12-17T15:11:06;25.25;;;12.23;;
21272;SDS011;36726;52.328;10.552;2022-12-17T15:13:33;29.10;;;12.88;;
21272;SDS011;36726;52.328;10.552;2022-12-17T15:15:59;25.10;;;12.57;;
21272;SDS011;36726;52.328;10.552;2022-12-17T15:18:26;23.75;;;12.43;;
21272;SDS011;36726;52.328;10.552;2022-12-17T15:20:53;22.65;;;11.77;;
21272;SDS011;36726;52.328;10.552;2022-12-17T15:23:22;34.15;;;13.43;;
21272;SDS011;36726;52.328;10.552;2022-12-17T15:25:50;29.27;;;12.73;;
21272;SDS011;36726;52.328;10.552;2022-12-17T15:28:18;29.73;;;12.70;;
21272;SDS011;36726;52.328;10.552;2022-12-17T15:30:46;27.60;;;12.65;;
21272;SDS011;36726;52.328;10.552;2022-12-17T15:33:14;26.38;;;13.07;;
21272;SDS011;36726;52.328;10.552;2022-12-17T15:35:41;26.55;;;12.82;;
21272;SDS011;36726;52.328;10.552;2022-12-17T15:38:09;24.90;;;12.80;;
21272;SDS011;36726;52.328;10.552;2022-12-17T15:40:36;22.60;;;12.88;;
21272;SDS011;36726;52.328;10.552;2022-12-17T15:43:04;23.98;;;12.27;;
21272;SDS011;36726;52.328;10.552;2022-12-17T15:45:41;23.67;;;12.93;;
21272;SDS011;36726;52.328;10.552;2022-12-17T15:48:10;21.75;;;12.10;;
21272;SDS011;36726;52.328;10.552;2022-12-17T15:50:38;25.67;;;12.40;;
21272;SDS011;36726;52.328;10.552;2022-12-17T15:53:05;26.58;;;13.50;;
21272;SDS011;36726;52.328;10.552;2022-12-17T15:55:32;25.08;;;14.02;;
21272;SDS011;36726;52.328;10.552;2022-12-17T15:57:59;29.60;;;14.35;;
21272;SDS011;36726;52.328;10.552;2022-12-17T16:00:25;34.25;;;15.10;;
21272;SDS011;36726;52.328;10.552;2022-12-17T16:02:52;28.15;;;14.75;;
21272;SDS011;36726;52.328;10.552;2022-12-17T16:05:19;28.13;;;14.38;;
21272;SDS011;36726;52.328;10.552;2022-12-17T16:07:47;28.52;;;14.50;;
21272;SDS011;36726;52.328;10.552;2022-12-17T16:10:14;26.98;;;14.30;;
21272;SDS011;36726;52.328;10.552;2022-12-17T16:12:41;29.45;;;13.25;;
21272;SDS011;36726;52.328;10.552;2022-12-17T16:15:09;24.55;;;12.93;;
21272;SDS011;36726;52.328;10.552;2022-12-17T16:17:36;24.85;;;12.63;;
21272;SDS011;36726;52.328;10.552;2022-12-17T16:20:03;31.58;;;13.82;;
21272;SDS011;36726;52.328;10.552;2022-12-17T16:22:31;28.80;;;14.52;;
21272;SDS011;36726;52.328;10.552;2022-12-17T16:24:57;34.05;;;14.82;;
21272;SDS011;36726;52.328;10.552;2022-12-17T16:27:24;28.88;;;14.13;;
21272;SDS011;36726;52.328;10.552;2022-12-17T16:29:50;28.25;;;13.98;;
21272;SDS011;36726;52.328;10.552;2022-12-17T16:32:17;31.08;;;15.20;;
21272;SDS011;36726;52.328;10.552;2022-12-17T16:34:44;24.45;;;13.43;;
21272;SDS011;36726;52.328;10.552;2022-12-17T16:37:10;30.88;;;14.38;;
21272;SDS011;36726;52.328;10.552;2022-12-17T16:39:37;29.33;;;14.55;;
21272;SDS011;36726;52.328;10.552;2022-12-17T16:42:04;26.50;;;13.95;;
21272;SDS011;36726;52.328;10.552;2022-12-17T16:44:30;28.98;;;13.88;;
21272;SDS011;36726;52.328;10.552;2022-12-17T16:46:57;23.38;;;13.43;;
21272;SDS011;36726;52.328;10.552;2022-12-17T16:49:25;27.63;;;13.65;;
21272;SDS011;36726;52.328;10.552;2022-12-17T16:51:52;27.23;;;14.25;;
21272;SDS011;36726;52.328;10.552;2022-12-17T16:54:23;31.80;;;15.43;;
21272;SDS011;36726;52.328;10.552;2022-12-17T16:56:52;29.30;;;15.23;;
21272;SDS011;36726;52.328;10.552;2022-12-17T16:59:19;28.65;;;15.68;;
21272;SDS011;36726;52.328;10.552;2022-12-17T17:01:47;39.53;;;18.58;;